createdAt,value
2022-11-08T00:01:29.790Z,77.83
2022-11-08T00:03:51.692Z,77.76
2022-11-08T00:06:31.822Z,77.69
2022-11-08T00:09:11.906Z,77.85
2022-11-08T00:11:52.167Z,77.70
2022-11-08T00:14:14.040Z,77.81
2022-11-08T00:16:35.953Z,77.87
2022-11-08T00:18:58.327Z,77.84
2022-11-08T00:21:20.182Z,77.59
2022-11-08T00:23:43.943Z,77.42
2022-11-08T00:26:06.879Z,77.41
2022-11-08T00:28:28.936Z,77.51
2022-11-08T00:30:50.781Z,77.72
2022-11-08T00:33:12.636Z,77.55
2022-11-08T00:35:34.519Z,77.58
2022-11-08T00:37:56.424Z,77.73
2022-11-08T00:40:18.296Z,77.77
2022-11-08T00:42:40.249Z,78.00
2022-11-08T00:45:02.189Z,77.95
2022-11-08T00:47:24.015Z,78.23
2022-11-08T00:49:46.231Z,78.02
2022-11-08T00:52:08.465Z,77.70
2022-11-08T00:54:30.497Z,78.31
2022-11-08T00:56:52.365Z,78.04
2022-11-08T00:59:17.779Z,78.08
2022-11-08T01:01:41.772Z,78.12
2022-11-08T01:04:03.806Z,78.51
2022-11-08T01:06:26.373Z,78.10
2022-11-08T01:08:49.898Z,78.19
2022-11-08T01:11:20.394Z,78.19
2022-11-08T01:13:42.747Z,78.96
2022-11-08T01:16:19.223Z,78.69
2022-11-08T01:18:41.505Z,79.10
2022-11-08T01:21:05.015Z,78.83
2022-11-08T01:23:26.840Z,79.29
2022-11-08T01:25:49.929Z,79.40
2022-11-08T01:28:13.034Z,79.16
2022-11-08T01:30:44.468Z,79.53
2022-11-08T01:33:06.795Z,79.57
2022-11-08T01:35:30.773Z,79.66
2022-11-08T01:37:52.565Z,80.09
2022-11-08T01:40:14.437Z,80.30
2022-11-08T01:42:36.207Z,80.31
2022-11-08T01:45:08.871Z,80.03
2022-11-08T01:47:31.125Z,80.53
2022-11-08T01:50:00.403Z,80.50
2022-11-08T01:52:39.468Z,80.61
2022-11-08T01:55:10.185Z,80.88
2022-11-08T01:57:46.610Z,80.96
2022-11-08T02:00:12.784Z,80.48
2022-11-08T02:02:37.772Z,80.46
2022-11-08T02:05:00.833Z,80.49
2022-11-08T02:07:24.578Z,80.52
2022-11-08T02:09:48.287Z,79.93
2022-11-08T02:12:11.153Z,79.92
2022-11-08T02:14:33.279Z,80.26
2022-11-08T02:16:55.263Z,80.25
2022-11-08T02:19:51.106Z,80.00
2022-11-08T02:22:26.271Z,80.00
2022-11-08T02:24:48.366Z,80.12
2022-11-08T02:27:12.484Z,79.89
2022-11-08T02:29:36.317Z,80.10
2022-11-08T02:32:00.798Z,79.81
2022-11-08T02:34:36.841Z,80.34
2022-11-08T02:37:01.416Z,80.16
2022-11-08T02:39:23.725Z,80.10
2022-11-08T02:41:45.576Z,80.17
2022-11-08T02:44:07.469Z,80.11
2022-11-08T02:46:29.324Z,79.98
2022-11-08T02:48:51.328Z,80.29
2022-11-08T02:51:13.143Z,80.27
2022-11-08T02:53:35.172Z,80.07
2022-11-08T02:55:57.115Z,79.87
2022-11-08T02:58:19.316Z,80.24
2022-11-08T03:00:41.483Z,80.37
2022-11-08T03:03:03.974Z,80.20
2022-11-08T03:05:28.776Z,80.43
2022-11-08T03:07:51.362Z,80.29
2022-11-08T03:10:14.947Z,80.54
2022-11-08T03:12:37.919Z,79.90
2022-11-08T03:14:59.708Z,79.86
2022-11-08T03:17:21.589Z,80.19
2022-11-08T03:19:43.510Z,80.20
2022-11-08T03:22:05.429Z,80.29
2022-11-08T03:24:27.326Z,79.98
2022-11-08T03:26:49.063Z,80.16
2022-11-08T03:29:10.854Z,79.91
2022-11-08T03:31:32.638Z,80.21
2022-11-08T03:33:54.385Z,79.80
2022-11-08T03:36:16.234Z,79.80
2022-11-08T03:38:38.231Z,79.83
2022-11-08T03:41:00.085Z,79.85
2022-11-08T03:43:21.908Z,79.54
2022-11-08T03:45:46.384Z,79.67
2022-11-08T03:48:08.755Z,79.69
2022-11-08T03:50:30.698Z,79.67
2022-11-08T03:52:56.545Z,79.96
2022-11-08T03:55:22.945Z,79.75
2022-11-08T03:57:48.075Z,79.73
2022-11-08T04:00:13.094Z,79.94
2022-11-08T04:02:35.040Z,79.71
2022-11-08T04:04:56.921Z,79.59
2022-11-08T04:07:18.815Z,79.76
2022-11-08T04:09:40.644Z,79.32
2022-11-08T04:12:20.812Z,79.34
2022-11-08T04:15:01.300Z,79.53
2022-11-08T04:17:43.146Z,79.56
2022-11-08T04:20:24.326Z,79.47
2022-11-08T04:22:46.198Z,79.16
2022-11-08T04:25:08.463Z,79.30
2022-11-08T04:27:30.413Z,79.66
2022-11-08T04:29:52.229Z,79.50
2022-11-08T04:32:14.400Z,79.17
2022-11-08T04:34:36.298Z,79.12
2022-11-08T04:36:58.122Z,79.37
2022-11-08T04:39:19.894Z,79.10
2022-11-08T04:41:41.665Z,79.02
2022-11-08T04:44:03.546Z,78.65
2022-11-08T04:46:28.418Z,78.73
2022-11-08T04:48:54.017Z,78.88
2022-11-08T04:51:26.996Z,78.58
2022-11-08T04:53:49.800Z,78.58
2022-11-08T04:56:15.275Z,78.11
2022-11-08T04:58:43.667Z,78.34
2022-11-08T05:01:08.208Z,78.01
2022-11-08T05:03:31.064Z,77.92
2022-11-08T05:05:52.903Z,77.70
2022-11-08T05:08:14.808Z,77.75
2022-11-08T05:10:36.933Z,77.70
2022-11-08T05:12:58.805Z,77.69
2022-11-08T05:15:21.935Z,77.65
2022-11-08T05:17:43.669Z,77.29
2022-11-08T05:20:25.476Z,77.39
2022-11-08T05:23:05.751Z,77.04
2022-11-08T05:25:27.779Z,77.30
2022-11-08T05:27:49.589Z,77.24
2022-11-08T05:30:11.899Z,77.16
2022-11-08T05:32:33.804Z,77.08
2022-11-08T05:34:55.692Z,77.02
2022-11-08T05:37:17.601Z,76.94
2022-11-08T05:39:39.461Z,77.06
2022-11-08T05:42:01.343Z,76.79
2022-11-08T05:44:23.252Z,76.96
2022-11-08T05:46:45.093Z,76.67
2022-11-08T05:49:07.077Z,76.69
2022-11-08T05:51:28.854Z,76.68
2022-11-08T05:53:50.793Z,76.21
2022-11-08T05:56:12.826Z,76.86
2022-11-08T05:58:36.267Z,76.50
2022-11-08T06:01:11.287Z,76.78
2022-11-08T06:03:33.982Z,76.61
2022-11-08T06:05:56.771Z,76.71
2022-11-08T06:08:18.582Z,76.71
2022-11-08T06:10:40.448Z,76.66
2022-11-08T06:13:02.386Z,76.79
2022-11-08T06:15:24.182Z,76.59
2022-11-08T06:17:45.997Z,76.33
2022-11-08T06:20:11.844Z,76.51
2022-11-08T06:22:36.827Z,76.31
2022-11-08T06:24:58.830Z,76.64
2022-11-08T06:27:20.688Z,76.47
2022-11-08T06:29:42.963Z,76.63
2022-11-08T06:32:04.978Z,76.24
2022-11-08T06:34:26.791Z,76.42
2022-11-08T06:36:48.672Z,76.26
2022-11-08T06:39:10.527Z,76.57
2022-11-08T06:41:33.047Z,76.27
2022-11-08T06:43:55.060Z,76.37
2022-11-08T06:46:17.552Z,76.26
2022-11-08T06:48:39.416Z,76.37
2022-11-08T06:51:02.017Z,76.11
2022-11-08T06:53:24.021Z,76.15
2022-11-08T06:55:45.986Z,76.01
2022-11-08T06:58:08.211Z,75.89
2022-11-08T07:00:30.920Z,75.96
2022-11-08T07:02:58.193Z,76.28
2022-11-08T07:05:20.844Z,76.08
2022-11-08T07:07:42.767Z,76.07
2022-11-08T07:10:06.312Z,75.78
2022-11-08T07:12:28.280Z,76.17
2022-11-08T07:14:50.162Z,76.10
2022-11-08T07:17:12.037Z,75.85
2022-11-08T07:19:34.021Z,75.50
2022-11-08T07:21:55.993Z,75.70
2022-11-08T07:24:18.224Z,75.26
2022-11-08T07:26:40.489Z,75.68
2022-11-08T07:29:02.895Z,75.42
2022-11-08T07:31:25.382Z,75.18
2022-11-08T07:33:47.656Z,75.27
2022-11-08T07:36:09.898Z,75.38
2022-11-08T07:38:32.123Z,75.04
2022-11-08T07:41:00.008Z,74.95
2022-11-08T07:43:21.917Z,74.58
2022-11-08T07:45:44.363Z,74.78
2022-11-08T07:48:15.697Z,74.63
2022-11-08T07:50:38.763Z,74.58
2022-11-08T07:53:04.834Z,74.48
2022-11-08T07:55:28.712Z,74.02
2022-11-08T07:57:51.101Z,74.03
2022-11-08T08:00:15.178Z,74.31
2022-11-08T08:02:37.697Z,74.06
2022-11-08T08:05:00.851Z,73.90
2022-11-08T08:07:31.748Z,73.44
2022-11-08T08:09:57.764Z,73.81
2022-11-08T08:12:21.008Z,73.37
2022-11-08T08:14:45.612Z,73.24
2022-11-08T08:17:07.610Z,73.22
2022-11-08T08:19:31.459Z,73.15
2022-11-08T08:21:53.447Z,72.72
2022-11-08T08:24:15.600Z,72.37
2022-11-08T08:26:38.284Z,72.41
2022-11-08T08:29:02.054Z,72.46
2022-11-08T08:32:53.389Z,72.07
2022-11-08T08:35:19.845Z,71.64
2022-11-08T08:37:41.896Z,71.27
2022-11-08T08:40:04.496Z,70.81
2022-11-08T08:42:26.398Z,70.44
2022-11-08T08:44:48.447Z,70.79
2022-11-08T08:47:10.291Z,70.25
2022-11-08T08:49:32.163Z,69.49
2022-11-08T08:51:54.159Z,69.74
2022-11-08T08:54:16.032Z,69.29
2022-11-08T08:56:37.981Z,68.64
2022-11-08T09:01:41.915Z,68.65
2022-11-08T09:04:04.760Z,68.45
2022-11-08T09:06:26.732Z,68.30
2022-11-08T09:08:48.736Z,67.68
2022-11-08T09:11:10.668Z,67.72
2022-11-08T09:13:32.712Z,67.93
2022-11-08T09:15:55.523Z,67.44
2022-11-08T09:18:17.785Z,67.00
2022-11-08T09:20:39.775Z,67.18
2022-11-08T09:23:03.262Z,67.30
2022-11-08T09:25:25.211Z,67.07
2022-11-08T09:27:47.188Z,66.87
2022-11-08T09:30:09.968Z,66.93
2022-11-08T09:32:46.569Z,67.01
2022-11-08T09:35:14.146Z,67.01
2022-11-08T09:37:35.985Z,66.86
2022-11-08T09:39:57.922Z,66.81
2022-11-08T09:42:38.448Z,65.68
2022-11-08T09:45:24.733Z,65.83
2022-11-08T09:47:54.519Z,66.01
2022-11-08T09:50:26.797Z,66.21
2022-11-08T09:53:25.878Z,66.19
2022-11-08T09:55:59.772Z,65.59
2022-11-08T09:58:30.395Z,65.68
2022-11-08T10:00:53.574Z,64.99
2022-11-08T10:03:18.103Z,64.75
2022-11-08T10:05:50.428Z,64.50
2022-11-08T10:08:32.049Z,64.77
2022-11-08T10:11:27.681Z,64.76
2022-11-08T10:14:02.515Z,64.62
2022-11-08T10:16:55.329Z,64.69
2022-11-08T10:19:54.917Z,63.63
2022-11-08T10:22:37.811Z,64.11
2022-11-08T10:25:19.358Z,64.26
2022-11-08T10:27:43.799Z,64.14
2022-11-08T10:30:27.939Z,64.15
2022-11-08T10:32:55.229Z,64.02
2022-11-08T10:35:27.585Z,63.44
2022-11-08T10:37:54.006Z,62.03
2022-11-08T10:40:25.458Z,61.82
2022-11-08T10:42:56.341Z,61.23
2022-11-08T10:45:18.533Z,61.33
2022-11-08T10:47:44.307Z,61.96
2022-11-08T10:50:20.352Z,62.12
2022-11-08T10:53:01.888Z,61.42
2022-11-08T10:55:38.621Z,61.34
2022-11-08T10:58:00.816Z,60.91
2022-11-08T11:00:22.770Z,61.06
2022-11-08T11:02:48.748Z,61.37
2022-11-08T11:05:18.028Z,61.39
2022-11-08T11:07:40.062Z,61.62
2022-11-08T11:10:28.498Z,61.12
2022-11-08T11:13:10.205Z,61.61
2022-11-08T11:15:48.001Z,61.46
2022-11-08T11:18:35.812Z,60.97
2022-11-08T11:21:20.975Z,60.94
2022-11-08T11:24:08.039Z,61.28
2022-11-08T11:26:34.461Z,61.34
2022-11-08T11:29:04.858Z,61.10
2022-11-08T11:31:26.912Z,61.39
2022-11-08T11:33:48.834Z,61.13
2022-11-08T11:36:18.944Z,61.16
2022-11-08T11:38:58.253Z,61.07
2022-11-08T11:41:30.482Z,61.31
2022-11-08T11:44:05.051Z,61.60
2022-11-08T11:47:02.759Z,60.91
2022-11-08T11:49:29.857Z,60.86
2022-11-08T11:51:56.336Z,60.20
2022-11-08T11:54:18.315Z,59.79
2022-11-08T11:57:24.805Z,59.74
2022-11-08T12:00:15.515Z,59.24
2022-11-08T12:03:20.842Z,59.81
2022-11-08T12:06:12.097Z,59.60
2022-11-08T12:08:45.937Z,59.42
2022-11-08T12:11:36.956Z,59.03
2022-11-08T12:14:19.096Z,59.13
2022-11-08T12:16:59.566Z,58.49
2022-11-08T12:19:36.519Z,58.94
2022-11-08T12:22:39.520Z,59.18
2022-11-08T12:25:07.219Z,58.76
2022-11-08T12:27:55.903Z,58.24
2022-11-08T12:31:02.715Z,59.30
2022-11-08T12:34:17.389Z,59.58
2022-11-08T12:36:43.094Z,59.16
2022-11-08T12:39:25.066Z,59.37
2022-11-08T12:42:18.788Z,58.51
2022-11-08T12:45:21.119Z,58.91
2022-11-08T12:48:17.285Z,59.08
2022-11-08T12:51:11.804Z,58.34
2022-11-08T12:54:00.937Z,58.75
2022-11-08T12:56:37.994Z,58.47
2022-11-08T12:59:01.314Z,58.56
2022-11-08T13:01:24.573Z,58.70
2022-11-08T13:04:06.223Z,58.78
2022-11-08T13:06:53.685Z,58.44
2022-11-08T13:09:46.163Z,58.45
2022-11-08T13:12:45.723Z,58.32
2022-11-08T13:15:21.737Z,58.75
2022-11-08T13:18:06.111Z,59.07
2022-11-08T13:20:42.175Z,58.47
2022-11-08T13:23:12.975Z,58.38
2022-11-08T13:25:37.050Z,58.56
2022-11-08T13:27:58.945Z,58.99
2022-11-08T13:30:20.743Z,58.16
2022-11-08T13:32:54.686Z,58.34
2022-11-08T13:35:22.594Z,58.00
2022-11-08T13:38:12.013Z,57.58
2022-11-08T13:41:03.723Z,58.21
2022-11-08T13:43:32.892Z,58.40
2022-11-08T13:45:55.157Z,57.65
2022-11-08T13:48:37.958Z,58.25
2022-11-08T13:51:35.663Z,58.66
2022-11-08T13:54:23.457Z,58.35
2022-11-08T13:56:50.669Z,58.34
2022-11-08T13:59:35.964Z,58.11
2022-11-08T14:01:57.905Z,58.09
2022-11-08T14:04:29.526Z,58.17
2022-11-08T14:07:25.442Z,57.93
2022-11-08T14:10:01.281Z,58.15
2022-11-08T14:13:01.713Z,57.81
2022-11-08T14:15:40.689Z,58.00
2022-11-08T14:18:20.905Z,58.23
2022-11-08T14:20:48.176Z,58.38
2022-11-08T14:23:19.727Z,58.48
2022-11-08T14:25:47.340Z,58.69
2022-11-08T14:28:28.917Z,58.80
2022-11-08T14:30:51.677Z,58.38
2022-11-08T14:33:22.755Z,58.60
2022-11-08T14:36:02.006Z,59.02
2022-11-08T14:38:25.886Z,58.82
2022-11-08T14:40:52.248Z,59.08
2022-11-08T14:43:14.874Z,58.92
2022-11-08T14:45:37.061Z,59.33
2022-11-08T14:48:04.711Z,59.54
2022-11-08T14:50:33.380Z,59.66
2022-11-08T14:52:55.697Z,59.52
2022-11-08T14:55:25.020Z,59.99
2022-11-08T14:57:47.195Z,59.94
2022-11-08T15:00:29.747Z,60.33
2022-11-08T15:03:01.051Z,60.67
2022-11-08T15:05:54.131Z,60.67
2022-11-08T15:08:26.044Z,61.26
2022-11-08T15:11:08.381Z,61.07
2022-11-08T15:13:40.432Z,61.37
2022-11-08T15:16:05.793Z,61.64
2022-11-08T15:18:35.590Z,61.43
2022-11-08T15:21:11.375Z,61.76
2022-11-08T15:23:46.882Z,61.70
2022-11-08T15:26:26.392Z,61.90
2022-11-08T15:29:17.313Z,61.76
2022-11-08T15:31:47.479Z,62.11
2022-11-08T15:34:37.523Z,62.30
2022-11-08T15:36:59.623Z,62.13
2022-11-08T15:39:35.938Z,62.27
2022-11-08T15:42:14.495Z,62.37
2022-11-08T15:45:05.070Z,62.56
2022-11-08T15:48:01.699Z,62.49
2022-11-08T15:50:29.740Z,62.83
2022-11-08T15:52:55.510Z,62.67
2022-11-08T15:55:29.656Z,62.91
2022-11-08T15:57:51.823Z,62.79
2022-11-08T16:00:22.466Z,62.88
2022-11-08T16:02:45.180Z,63.26
2022-11-08T16:05:29.553Z,62.87
2022-11-08T16:07:52.515Z,63.13
2022-11-08T16:10:17.581Z,63.20
2022-11-08T16:12:44.672Z,63.26
2022-11-08T16:15:21.728Z,63.06
2022-11-08T16:17:44.185Z,63.42
2022-11-08T16:20:30.996Z,63.31
2022-11-08T16:22:54.070Z,63.57
2022-11-08T16:25:16.135Z,63.50
2022-11-08T16:27:38.100Z,63.53
2022-11-08T16:30:00.422Z,63.72
2022-11-08T16:32:22.326Z,63.93
2022-11-08T16:34:44.195Z,63.91
2022-11-08T16:37:09.463Z,64.07
2022-11-08T16:39:31.417Z,64.29
2022-11-08T16:41:53.461Z,64.30
2022-11-08T16:44:15.491Z,64.29
2022-11-08T16:46:37.856Z,64.50
2022-11-08T16:49:00.146Z,64.56
2022-11-08T16:51:25.351Z,64.86
2022-11-08T16:53:48.964Z,65.11
2022-11-08T16:56:11.055Z,65.01
2022-11-08T16:58:33.035Z,65.05
2022-11-08T17:00:56.522Z,65.25
2022-11-08T17:03:25.808Z,65.29
2022-11-08T17:05:48.412Z,65.32
2022-11-08T17:08:10.254Z,65.67
2022-11-08T17:10:32.123Z,65.75
2022-11-08T17:12:55.219Z,65.68
2022-11-08T17:15:21.835Z,65.70
2022-11-08T17:17:44.342Z,65.79
2022-11-08T17:20:09.627Z,66.01
2022-11-08T17:22:31.469Z,65.84
2022-11-08T17:24:53.339Z,66.08
2022-11-08T17:27:19.678Z,66.08
2022-11-08T17:29:41.687Z,65.94
2022-11-08T17:32:04.276Z,65.96
2022-11-08T17:34:26.416Z,66.26
2022-11-08T17:36:49.080Z,66.26
2022-11-08T17:39:14.747Z,66.63
2022-11-08T17:41:36.678Z,66.80
2022-11-08T17:43:58.946Z,66.81
2022-11-08T17:46:21.051Z,67.08
2022-11-08T17:48:43.118Z,66.78
2022-11-08T17:51:06.022Z,66.86
2022-11-08T17:53:29.366Z,66.84
2022-11-08T17:56:00.438Z,67.02
2022-11-08T17:58:23.775Z,66.92
2022-11-08T18:00:46.126Z,67.02
2022-11-08T18:03:13.164Z,67.07
2022-11-08T18:05:35.526Z,67.06
2022-11-08T18:07:57.465Z,67.11
2022-11-08T18:10:19.977Z,67.23
2022-11-08T18:12:45.967Z,67.09
2022-11-08T18:15:09.459Z,67.23
2022-11-08T18:17:31.563Z,66.91
2022-11-08T18:19:53.603Z,66.99
2022-11-08T18:22:15.568Z,67.24
2022-11-08T18:24:39.953Z,66.77
2022-11-08T18:27:01.935Z,66.92
2022-11-08T18:29:23.852Z,66.96
2022-11-08T18:31:45.912Z,66.83
2022-11-08T18:34:08.195Z,66.73
2022-11-08T18:36:31.178Z,66.92
2022-11-08T18:38:53.239Z,66.83
2022-11-08T18:41:19.711Z,66.79
2022-11-08T18:43:42.355Z,66.76
2022-11-08T18:46:06.938Z,66.72
2022-11-08T18:48:28.970Z,66.81
2022-11-08T18:50:51.108Z,66.96
2022-11-08T18:53:13.362Z,67.05
2022-11-08T18:55:35.928Z,67.02
2022-11-08T18:57:59.141Z,66.82
2022-11-08T19:00:21.576Z,67.12
2022-11-08T19:02:43.753Z,67.11
2022-11-08T19:05:06.201Z,67.21
2022-11-08T19:07:28.351Z,66.96
2022-11-08T19:09:51.445Z,67.02
2022-11-08T19:12:13.882Z,67.11
2022-11-08T19:14:44.683Z,67.18
2022-11-08T19:17:07.197Z,67.12
2022-11-08T19:19:29.288Z,67.31
2022-11-08T19:21:51.422Z,67.19
2022-11-08T19:24:16.739Z,67.07
2022-11-08T19:26:41.900Z,67.25
2022-11-08T19:29:05.733Z,67.32
2022-11-08T19:31:27.828Z,67.32
2022-11-08T19:33:53.760Z,67.51
2022-11-08T19:36:21.274Z,67.46
2022-11-08T19:38:43.765Z,67.48
2022-11-08T19:41:09.668Z,67.38
2022-11-08T19:43:35.278Z,67.62
2022-11-08T19:46:04.467Z,67.73
2022-11-08T19:48:26.367Z,67.68
2022-11-08T19:50:48.413Z,67.75
2022-11-08T19:53:10.454Z,67.78
2022-11-08T19:55:32.328Z,67.77
2022-11-08T19:57:54.203Z,67.61
2022-11-08T20:00:17.865Z,67.50
2022-11-08T20:02:39.810Z,67.47
2022-11-08T20:05:02.000Z,67.55
2022-11-08T20:07:23.869Z,67.33
2022-11-08T20:09:45.733Z,67.36
2022-11-08T20:12:08.452Z,67.24
2022-11-08T20:14:30.327Z,67.01
2022-11-08T20:16:53.999Z,67.01
2022-11-08T20:19:16.813Z,66.96
2022-11-08T20:21:42.029Z,67.26
2022-11-08T20:24:04.136Z,66.96
2022-11-08T20:26:27.660Z,66.99
2022-11-08T20:28:56.473Z,66.88
2022-11-08T20:31:22.977Z,66.67
2022-11-08T20:33:48.081Z,66.80
2022-11-08T20:36:13.665Z,66.78
2022-11-08T20:38:36.979Z,66.90
2022-11-08T20:41:02.537Z,66.98
2022-11-08T20:43:24.378Z,66.83
2022-11-08T20:45:47.463Z,66.67
2022-11-08T20:48:09.498Z,66.76
2022-11-08T20:50:31.732Z,66.51
2022-11-08T20:52:53.627Z,66.48
2022-11-08T20:55:15.470Z,66.40
2022-11-08T20:57:37.293Z,66.54
2022-11-08T21:00:11.566Z,66.54
2022-11-08T21:02:35.103Z,66.42
2022-11-08T21:04:56.981Z,66.15
2022-11-08T21:08:01.468Z,66.49
2022-11-08T21:10:26.904Z,66.38
2022-11-08T21:12:42.783Z,66.44
2022-11-08T21:15:05.249Z,66.65
2022-11-08T21:17:27.123Z,66.96
2022-11-08T21:19:51.026Z,66.58
2022-11-08T21:22:15.591Z,66.73
2022-11-08T21:24:37.325Z,66.67
2022-11-08T21:26:59.202Z,66.76
2022-11-08T21:29:22.277Z,66.89
2022-11-08T21:31:44.128Z,67.00
2022-11-08T21:34:06.059Z,66.98
2022-11-08T21:36:29.233Z,67.03
2022-11-08T21:38:51.400Z,67.28
2022-11-08T21:41:13.402Z,67.27
2022-11-08T21:43:43.347Z,67.60
2022-11-08T21:46:25.466Z,67.74
2022-11-08T21:48:53.853Z,67.64
2022-11-08T21:51:16.258Z,67.75
2022-11-08T21:53:46.983Z,67.89
2022-11-08T21:56:14.519Z,68.02
2022-11-08T21:58:36.409Z,68.01
2022-11-08T22:00:58.277Z,68.18
2022-11-08T22:03:20.233Z,68.26
2022-11-08T22:05:44.063Z,68.39
2022-11-08T22:08:05.934Z,68.32
2022-11-08T22:10:27.966Z,68.39
2022-11-08T22:12:49.815Z,68.58
2022-11-08T22:15:11.729Z,68.69
2022-11-08T22:17:33.727Z,68.82
2022-11-08T22:19:55.591Z,68.86
2022-11-08T22:22:17.586Z,69.06
2022-11-08T22:24:39.858Z,69.06
2022-11-08T22:27:02.181Z,69.12
2022-11-08T22:29:24.248Z,69.28
2022-11-08T22:31:46.489Z,69.42
2022-11-08T22:34:09.882Z,69.61
2022-11-08T22:36:32.231Z,69.90
2022-11-08T22:38:54.564Z,69.61
2022-11-08T22:41:21.748Z,69.93
2022-11-08T22:43:44.630Z,69.82
2022-11-08T22:46:06.612Z,69.91
2022-11-08T22:48:28.492Z,70.07
2022-11-08T22:50:50.377Z,70.28
2022-11-08T22:53:12.253Z,70.20
2022-11-08T22:55:34.310Z,70.12
2022-11-08T22:57:56.208Z,70.06
2022-11-08T23:00:18.892Z,70.31
2022-11-08T23:02:40.890Z,70.59
2022-11-08T23:05:02.718Z,70.72
2022-11-08T23:07:24.556Z,70.86
2022-11-08T23:09:46.520Z,70.74
2022-11-08T23:12:29.056Z,70.75
2022-11-08T23:15:20.075Z,70.73
2022-11-08T23:17:41.974Z,71.28
2022-11-08T23:20:22.841Z,71.04
2022-11-08T23:23:03.290Z,71.37
2022-11-08T23:25:25.101Z,71.33
2022-11-08T23:28:05.503Z,71.18
2022-11-08T23:30:46.008Z,71.30
2022-11-08T23:33:07.929Z,71.26
2022-11-08T23:35:29.772Z,71.48
2022-11-08T23:37:51.616Z,71.42
2022-11-08T23:40:34.366Z,71.13
2022-11-08T23:43:34.999Z,71.42
2022-11-08T23:45:58.524Z,71.72
2022-11-08T23:48:21.112Z,71.46
2022-11-08T23:50:51.648Z,71.38
2022-11-08T23:53:13.575Z,71.61
2022-11-08T23:55:35.367Z,71.74
2022-11-08T23:57:57.138Z,71.52
